Airfield :







YOU CAN JOIN US ON...

 
LOGIN :

Register | Disclaimer

   EN    FR    IT 

 









Legend :    VFR   Marginal VFR   IFR   Intensive IFR   Very Intensive IFR
Visi :
Ceiling :
>= 8 km
>= 3000ft
5 to 8 km
1000 to 3000 ft
1500m to 5 km
500 to 1000 ft
800 to 1500m
200 to 500 ft
< 800m
< 200 ft
Symbols :   Thunderstorms  Fog  Heavy snow  Heavy precipitations  Wind > 20 kt






- Airport Elevation : 496 ft
- IATA code : YQX


CYQX - Gander

CURRENT METAR :
  • 151400Z 29007KT 20SM BKN020 OVC120 22/18 A2982 RMK SC6AS2 SLP100 DENSITY ALT 1600FT

EXPIRED METARs :
  • 151300Z 26011KT 20SM BKN025 BKN040 BKN120 21/17 A2982 RMK SC5SC1AC1 SLP101 DENSITY ALT 1500FT
  • 151200Z 25009KT 20SM BKN025 20/17 A2982 RMK SC5 SLP100 DENSITY ALT 1400FT
  • 151100Z 22008KT 20SM OVC020 18/16 A2982 RMK SC8 SLP103 DENSITY ALT 1100FT
  • 151000Z CCA 23005KT 20SM BKN009 OVC014 17/15 A2982 RMK ST5ST3 SLP100 DENSITY ALT 1000FT

TAF AMD TAF CYQX
Valid from the 15 at 14:00 until the 16 at 12:00 UTC


151427Z 1514/1612 27010KT P6SM SCT020 OVC100
TEMPO 1514/1602 P6SM -SHRA BKN020 OVC100
PROB30 1518/1524 VRB15G25KT 2SM TSRA BR BKN007 OVC020CB
FM160200 36005KT 3/4SM -RA -DZ BR OVC002
PROB40 1603/1608 1/4SM FG VV001
FM160800 20010KT 2SM BR OVC005
FM161100 23010G20KT P6SM BKN015 RMK NXT FCST BY 151800Z
CZQX FIR / North America



MET'MAP, your aeronautical weather chart ! - Copyright ORBIFLY December 2007 - Disclaimer

ORBIFLY MET'MAP TEAM :

Programming & Development : Alexandra Zaïnal
Original concept : Baudouin d'Aumeries
Technical & hardware support : Manuel Goepfert
Assistance : Marc-Olivier Méhu




SOURCES & CREDITS :

   NOAA